Time;durP1;ratioP1;P1;durP2;ratioP2;P2;SDS_P1;SDS_P2;PMS_P1;PMS_P2;Temp;Humidity;BMP_temperature;BMP_pressure;BME280_temperature;BME280_humidity;BME280_pressure;Samples;Min_cycle;Max_cycle;Signal;HPM_P1;HPM_P2
2024/01/11 00:01:19;;;;;;;7.10;6.40;;;;;;;;;;5085199;28;20035;-75
2024/01/11 00:03:45;;;;;;;6.97;6.28;;;;;;;;;;5086689;28;20035;-74
2024/01/11 00:06:11;;;;;;;7.15;6.43;;;;;;;;;;5086798;28;20032;-74
2024/01/11 00:08:37;;;;;;;12.75;11.48;;;;;;;;;;5089318;28;20541;-74
2024/01/11 00:11:04;;;;;;;7.53;6.82;;;;;;;;;;5084066;28;20032;-74
2024/01/11 00:13:30;;;;;;;6.55;5.95;;;;;;;;;;5089570;28;20032;-75
2024/01/11 00:15:56;;;;;;;7.63;6.85;;;;;;;;;;5086194;28;20042;-74
2024/01/11 00:18:22;;;;;;;5.95;4.72;;;;;;;;;;5084493;28;20092;-73
2024/01/11 00:20:48;;;;;;;8.70;7.93;;;;;;;;;;5086605;28;20040;-75
2024/01/11 00:23:17;;;;;;;9.57;6.10;;;;;;;;;;5086506;28;20048;-73
2024/01/11 00:25:44;;;;;;;4.45;4.05;;;;;;;;;;5085189;28;20436;-74
2024/01/11 00:28:11;;;;;;;7.28;5.82;;;;;;;;;;5089465;28;20038;-74
2024/01/11 00:30:37;;;;;;;6.22;5.63;;;;;;;;;;5086517;28;20036;-74
2024/01/11 00:33:03;;;;;;;8.82;8.00;;;;;;;;;;5089513;28;20055;-74
2024/01/11 00:35:29;;;;;;;8.93;7.32;;;;;;;;;;5097258;28;20055;-74
2024/01/11 00:37:55;;;;;;;12.77;9.20;;;;;;;;;;5091903;28;20032;-75
2024/01/11 00:40:21;;;;;;;5.60;5.10;;;;;;;;;;5096608;28;20051;-73
2024/01/11 00:42:48;;;;;;;8.90;6.10;;;;;;;;;;5097719;28;20028;-74
2024/01/11 00:45:15;;;;;;;6.43;5.70;;;;;;;;;;5096113;28;20121;-74
2024/01/11 00:47:41;;;;;;;10.18;9.15;;;;;;;;;;5096910;28;20530;-75
2024/01/11 00:50:09;;;;;;;6.47;5.82;;;;;;;;;;5096352;28;20603;-75
2024/01/11 00:52:35;;;;;;;7.18;6.57;;;;;;;;;;5090156;28;20032;-75
2024/01/11 00:55:02;;;;;;;10.93;9.82;;;;;;;;;;5090094;28;20093;-74
2024/01/11 00:57:29;;;;;;;7.00;5.85;;;;;;;;;;5085255;28;20504;-74
2024/01/11 00:59:55;;;;;;;6.97;6.20;;;;;;;;;;5084660;28;20141;-75
2024/01/11 01:02:21;;;;;;;10.02;9.00;;;;;;;;;;5081480;28;20024;-75
2024/01/11 01:04:46;;;;;;;11.77;10.65;;;;;;;;;;5089050;28;20166;-74
2024/01/11 01:07:12;;;;;;;6.18;5.57;;;;;;;;;;5086029;28;20411;-74
2024/01/11 01:09:38;;;;;;;4.70;4.40;;;;;;;;;;5089247;28;20044;-75
2024/01/11 01:12:05;;;;;;;5.78;5.28;;;;;;;;;;5098915;28;20028;-75
2024/01/11 01:14:30;;;;;;;5.10;4.60;;;;;;;;;;5085514;28;20047;-75
2024/01/11 01:16:56;;;;;;;6.05;5.20;;;;;;;;;;5081700;28;20033;-75
2024/01/11 01:19:22;;;;;;;8.55;7.60;;;;;;;;;;5097311;28;20064;-74
2024/01/11 01:21:48;;;;;;;12.40;7.22;;;;;;;;;;5092362;28;20028;-74
2024/01/11 01:24:14;;;;;;;7.22;6.03;;;;;;;;;;5082799;28;20028;-74
2024/01/11 01:26:40;;;;;;;7.10;6.30;;;;;;;;;;5087322;28;20024;-74
2024/01/11 01:29:06;;;;;;;13.68;5.45;;;;;;;;;;5092795;28;20055;-74
2024/01/11 01:31:37;;;;;;;10.10;8.23;;;;;;;;;;5103411;28;20036;-74
2024/01/11 01:34:03;;;;;;;8.25;6.68;;;;;;;;;;5092435;28;20028;-74
2024/01/11 01:36:29;;;;;;;7.07;6.38;;;;;;;;;;5104699;28;20046;-73
2024/01/11 01:38:55;;;;;;;7.53;6.82;;;;;;;;;;5082773;28;20507;-73
2024/01/11 01:41:21;;;;;;;5.40;4.85;;;;;;;;;;5086064;28;20496;-73
2024/01/11 01:43:47;;;;;;;7.57;6.93;;;;;;;;;;5086652;28;20031;-72
2024/01/11 01:46:16;;;;;;;7.18;6.07;;;;;;;;;;5085990;28;20082;-73
2024/01/11 01:48:43;;;;;;;7.68;6.45;;;;;;;;;;5084409;28;20105;-73
2024/01/11 01:51:09;;;;;;;6.38;4.28;;;;;;;;;;5084125;28;20486;-73
2024/01/11 01:53:35;;;;;;;5.10;4.65;;;;;;;;;;5083199;28;20515;-73
2024/01/11 01:56:01;;;;;;;8.15;7.22;;;;;;;;;;5080894;28;20032;-73
2024/01/11 01:58:26;;;;;;;9.25;6.20;;;;;;;;;;5084146;28;20040;-73
2024/01/11 02:00:52;;;;;;;2.42;2.28;;;;;;;;;;5083286;28;20794;-73
2024/01/11 02:03:18;;;;;;;3.95;3.60;;;;;;;;;;5083492;28;20106;-72
2024/01/11 02:05:44;;;;;;;6.15;5.15;;;;;;;;;;5075568;28;20078;-73
2024/01/11 02:08:12;;;;;;;9.05;5.03;;;;;;;;;;5071987;28;20499;-73
2024/01/11 02:10:38;;;;;;;3.60;3.30;;;;;;;;;;5082542;28;20606;-73
2024/01/11 02:13:04;;;;;;;4.30;3.53;;;;;;;;;;5080489;28;20132;-74
2024/01/11 02:15:30;;;;;;;7.32;4.90;;;;;;;;;;5085203;28;20122;-73
2024/01/11 02:17:56;;;;;;;3.15;2.95;;;;;;;;;;5082896;28;20035;-73
2024/01/11 02:20:22;;;;;;;3.58;3.28;;;;;;;;;;5078088;28;20036;-73
2024/01/11 02:22:50;;;;;;;4.65;3.35;;;;;;;;;;5088393;28;20033;-74
2024/01/11 02:25:16;;;;;;;5.20;4.70;;;;;;;;;;5081081;28;20028;-73
2024/01/11 02:27:45;;;;;;;5.93;3.40;;;;;;;;;;5085543;28;20040;-73
2024/01/11 02:30:11;;;;;;;5.55;4.30;;;;;;;;;;5086209;28;20491;-73
2024/01/11 02:32:37;;;;;;;4.38;3.88;;;;;;;;;;5079135;28;20098;-74
2024/01/11 02:35:03;;;;;;;2.33;2.22;;;;;;;;;;5084497;28;20106;-74
2024/01/11 02:37:29;;;;;;;3.72;3.42;;;;;;;;;;5066755;28;20047;-75
2024/01/11 02:39:55;;;;;;;4.93;4.50;;;;;;;;;;5080170;28;20051;-74
2024/01/11 02:42:21;;;;;;;3.50;3.20;;;;;;;;;;5079894;28;20032;-74
2024/01/11 02:44:47;;;;;;;4.28;3.97;;;;;;;;;;5089081;28;20035;-74
2024/01/11 02:47:13;;;;;;;5.45;3.95;;;;;;;;;;5082137;28;20028;-75
2024/01/11 02:49:39;;;;;;;4.55;4.15;;;;;;;;;;5078587;28;20036;-74
2024/01/11 02:52:05;;;;;;;6.10;4.10;;;;;;;;;;5102324;28;20043;-75
2024/01/11 02:54:31;;;;;;;5.65;4.80;;;;;;;;;;5064949;28;20142;-75
2024/01/11 02:56:57;;;;;;;3.53;3.22;;;;;;;;;;5080158;28;20032;-75
2024/01/11 02:59:23;;;;;;;5.53;4.82;;;;;;;;;;5085613;28;20051;-74
2024/01/11 03:01:49;;;;;;;9.13;4.60;;;;;;;;;;5079245;28;20031;-74
2024/01/11 03:04:16;;;;;;;3.60;3.40;;;;;;;;;;5068785;28;20745;-74
2024/01/11 03:06:42;;;;;;;2.75;2.55;;;;;;;;;;5083629;28;20093;-74
2024/01/11 03:09:08;;;;;;;5.00;3.65;;;;;;;;;;5080745;28;20382;-74
2024/01/11 03:11:34;;;;;;;5.60;4.18;;;;;;;;;;5092505;28;20092;-74
2024/01/11 03:14:00;;;;;;;6.45;4.72;;;;;;;;;;5107570;28;20107;-74
2024/01/11 03:16:26;;;;;;;6.00;4.00;;;;;;;;;;5084102;28;20043;-74
2024/01/11 03:18:52;;;;;;;6.00;4.55;;;;;;;;;;5081142;28;20028;-75
2024/01/11 03:21:18;;;;;;;6.10;4.35;;;;;;;;;;5080068;28;20028;-75
2024/01/11 03:23:44;;;;;;;8.20;5.20;;;;;;;;;;5084774;28;20036;-75
2024/01/11 03:26:16;;;;;;;5.68;4.63;;;;;;;;;;5084409;28;20028;-75
2024/01/11 03:28:42;;;;;;;4.53;4.13;;;;;;;;;;5088660;28;20453;-72
2024/01/11 03:31:09;;;;;;;6.18;4.90;;;;;;;;;;5088323;28;20495;-73
2024/01/11 03:33:34;;;;;;;3.95;3.65;;;;;;;;;;5084981;28;20056;-74
2024/01/11 03:36:06;;;;;;;8.35;5.15;;;;;;;;;;5087858;28;20638;-73
2024/01/11 03:38:32;;;;;;;4.28;3.25;;;;;;;;;;5084574;28;20055;-73
2024/01/11 03:40:58;;;;;;;4.38;3.92;;;;;;;;;;5069511;28;20055;-73
2024/01/11 03:43:24;;;;;;;2.95;2.75;;;;;;;;;;5087919;28;20036;-73
2024/01/11 03:45:52;;;;;;;6.32;3.47;;;;;;;;;;5052988;28;20089;-74
2024/01/11 03:48:18;;;;;;;3.00;2.78;;;;;;;;;;5085357;28;20038;-73
2024/01/11 03:50:44;;;;;;;3.95;3.63;;;;;;;;;;5084693;28;20044;-74
2024/01/11 03:53:10;;;;;;;3.33;3.10;;;;;;;;;;5097365;28;20407;-73
2024/01/11 03:55:36;;;;;;;3.15;2.85;;;;;;;;;;5087822;28;20628;-73
2024/01/11 03:58:09;;;;;;;3.85;3.55;;;;;;;;;;5084397;28;20040;-73
2024/01/11 04:00:35;;;;;;;3.33;3.13;;;;;;;;;;5084149;28;20089;-73
2024/01/11 04:03:01;;;;;;;2.60;2.50;;;;;;;;;;5085855;28;20040;-73
2024/01/11 04:05:28;;;;;;;2.63;2.53;;;;;;;;;;5086513;28;20042;-74
2024/01/11 04:07:54;;;;;;;2.85;2.75;;;;;;;;;;5084059;28;20416;-73
2024/01/11 04:10:19;;;;;;;2.95;2.75;;;;;;;;;;5086548;28;20038;-73
2024/01/11 04:12:45;;;;;;;2.75;2.58;;;;;;;;;;5086163;28;20047;-73
2024/01/11 04:15:14;;;;;;;2.60;2.40;;;;;;;;;;5084654;28;20111;-73
2024/01/11 04:17:40;;;;;;;2.05;1.95;;;;;;;;;;5088276;28;20666;-73
2024/01/11 04:20:06;;;;;;;1.90;1.80;;;;;;;;;;5051577;28;20036;-73
2024/01/11 04:22:32;;;;;;;2.50;2.30;;;;;;;;;;5104892;28;20110;-72
2024/01/11 04:24:58;;;;;;;1.65;1.60;;;;;;;;;;5090043;28;20036;-73
2024/01/11 04:27:24;;;;;;;2.80;2.63;;;;;;;;;;5083650;28;20028;-72
2024/01/11 04:29:50;;;;;;;1.33;1.27;;;;;;;;;;5081121;28;20528;-73
2024/01/11 04:32:15;;;;;;;4.00;1.45;;;;;;;;;;5080663;28;20462;-73
2024/01/11 04:34:41;;;;;;;2.00;1.90;;;;;;;;;;5086111;28;20392;-73
2024/01/11 04:37:08;;;;;;;1.70;1.70;;;;;;;;;;5088517;28;20081;-73
2024/01/11 04:39:33;;;;;;;1.58;1.58;;;;;;;;;;5076830;28;20048;-73
2024/01/11 04:42:00;;;;;;;1.80;1.70;;;;;;;;;;5085236;28;20027;-73
2024/01/11 04:44:27;;;;;;;1.75;1.73;;;;;;;;;;5087040;28;20081;-73
2024/01/11 04:46:53;;;;;;;1.40;1.40;;;;;;;;;;5082015;28;20508;-73
2024/01/11 04:49:19;;;;;;;1.38;1.38;;;;;;;;;;5084291;28;20030;-73
2024/01/11 04:51:45;;;;;;;1.50;1.50;;;;;;;;;;5080790;28;20040;-73
2024/01/11 04:54:10;;;;;;;1.45;1.45;;;;;;;;;;5085242;28;20119;-73
2024/01/11 04:56:36;;;;;;;1.75;1.65;;;;;;;;;;5081383;28;20337;-73
2024/01/11 04:59:02;;;;;;;1.40;1.38;;;;;;;;;;5080994;28;20094;-73
2024/01/11 05:01:28;;;;;;;1.63;1.52;;;;;;;;;;5086430;28;20466;-72
2024/01/11 05:03:54;;;;;;;1.70;1.60;;;;;;;;;;5077812;28;20004;-73
2024/01/11 05:06:20;;;;;;;2.10;1.83;;;;;;;;;;5089515;28;20036;-71
2024/01/11 05:08:46;;;;;;;1.08;1.08;;;;;;;;;;5084876;28;20456;-72
2024/01/11 05:11:21;;;;;;;1.10;1.10;;;;;;;;;;5086574;28;20024;-73
2024/01/11 05:13:48;;;;;;;1.30;1.30;;;;;;;;;;5079939;28;20027;-72
2024/01/11 05:16:23;;;;;;;1.35;1.23;;;;;;;;;;5086846;28;20039;-73
2024/01/11 05:18:50;;;;;;;1.27;1.27;;;;;;;;;;5103099;27;20584;-73
2024/01/11 05:21:16;;;;;;;1.40;1.40;;;;;;;;;;5092467;28;20050;-73
2024/01/11 05:23:42;;;;;;;1.42;1.42;;;;;;;;;;5085257;28;20024;-72
2024/01/11 05:26:11;;;;;;;1.13;1.13;;;;;;;;;;5085952;28;20032;-73
2024/01/11 05:28:38;;;;;;;1.40;1.40;;;;;;;;;;5078342;28;20032;-73
2024/01/11 05:31:05;;;;;;;1.00;1.00;;;;;;;;;;5084830;28;20113;-74
2024/01/11 05:33:31;;;;;;;1.10;1.10;;;;;;;;;;5088181;28;20155;-73
2024/01/11 05:35:57;;;;;;;1.30;1.30;;;;;;;;;;5064100;28;20020;-73
2024/01/11 05:38:23;;;;;;;6.07;2.00;;;;;;;;;;5077529;28;20058;-73
2024/01/11 05:40:49;;;;;;;1.33;1.23;;;;;;;;;;5087402;28;20131;-75
2024/01/11 05:43:15;;;;;;;0.98;0.98;;;;;;;;;;5078611;28;20024;-73
2024/01/11 05:45:41;;;;;;;1.17;1.17;;;;;;;;;;5079243;28;20481;-75
2024/01/11 05:48:07;;;;;;;1.10;1.10;;;;;;;;;;5086628;28;20028;-75
2024/01/11 05:50:33;;;;;;;1.60;1.50;;;;;;;;;;5075496;28;20036;-74
2024/01/11 05:52:59;;;;;;;1.33;1.33;;;;;;;;;;5080688;28;20039;-75
2024/01/11 05:55:24;;;;;;;1.10;1.10;;;;;;;;;;5079722;28;20063;-75
2024/01/11 05:57:50;;;;;;;1.17;1.17;;;;;;;;;;5071304;28;20100;-74
2024/01/11 06:00:16;;;;;;;1.48;1.38;;;;;;;;;;5067691;28;20060;-74
2024/01/11 06:02:42;;;;;;;1.27;1.27;;;;;;;;;;5056377;28;20082;-75
2024/01/11 06:05:08;;;;;;;2.00;1.90;;;;;;;;;;5073531;28;20040;-74
2024/01/11 06:07:34;;;;;;;1.42;1.42;;;;;;;;;;5071436;28;20107;-75
2024/01/11 06:10:02;;;;;;;1.27;1.27;;;;;;;;;;5083014;28;20722;-74
2024/01/11 06:12:29;;;;;;;1.27;1.27;;;;;;;;;;5073516;28;20032;-76
2024/01/11 06:14:55;;;;;;;1.20;1.20;;;;;;;;;;5076955;28;20135;-76
2024/01/11 06:17:21;;;;;;;1.08;1.08;;;;;;;;;;5075476;28;20028;-75
2024/01/11 06:19:47;;;;;;;1.20;1.20;;;;;;;;;;5072653;28;20055;-74
2024/01/11 06:22:16;;;;;;;1.50;1.50;;;;;;;;;;5079428;28;20038;-75
2024/01/11 06:24:42;;;;;;;1.17;1.10;;;;;;;;;;5059329;28;20032;-74
2024/01/11 06:27:07;;;;;;;1.42;1.42;;;;;;;;;;5079560;28;20031;-74
2024/01/11 06:29:33;;;;;;;1.45;1.40;;;;;;;;;;5075246;28;20176;-74
2024/01/11 06:31:59;;;;;;;1.55;1.45;;;;;;;;;;5078242;28;20087;-75
2024/01/11 06:34:25;;;;;;;1.48;1.48;;;;;;;;;;5054665;28;20036;-75
2024/01/11 06:36:54;;;;;;;0.95;0.95;;;;;;;;;;5078847;28;20032;-75
2024/01/11 06:39:20;;;;;;;1.23;1.23;;;;;;;;;;5074664;28;20528;-74
2024/01/11 06:41:46;;;;;;;1.88;1.77;;;;;;;;;;5082806;28;20570;-74
2024/01/11 06:44:12;;;;;;;1.60;1.50;;;;;;;;;;5073186;28;20124;-77
2024/01/11 06:46:41;;;;;;;1.15;1.15;;;;;;;;;;5079807;28;20527;-76
2024/01/11 06:49:07;;;;;;;0.90;0.90;;;;;;;;;;5074537;28;20454;-75
2024/01/11 06:51:33;;;;;;;1.30;1.30;;;;;;;;;;5076099;28;20041;-75
2024/01/11 06:54:00;;;;;;;1.45;1.45;;;;;;;;;;5078138;28;20097;-77
2024/01/11 06:56:25;;;;;;;1.20;1.20;;;;;;;;;;5090358;28;20032;-79
2024/01/11 06:58:52;;;;;;;1.00;1.00;;;;;;;;;;5087900;28;20459;-78
2024/01/11 07:01:18;;;;;;;1.45;1.35;;;;;;;;;;5073795;28;20032;-77
2024/01/11 07:03:44;;;;;;;1.30;1.20;;;;;;;;;;5088039;28;20040;-75
2024/01/11 07:06:10;;;;;;;1.30;1.30;;;;;;;;;;5071255;28;20035;-76
2024/01/11 07:08:36;;;;;;;1.58;1.45;;;;;;;;;;5095855;28;20458;-75
2024/01/11 07:11:04;;;;;;;1.38;1.27;;;;;;;;;;5092263;28;20035;-76
2024/01/11 07:13:33;;;;;;;1.35;1.35;;;;;;;;;;5093069;28;20036;-76
2024/01/11 07:15:59;;;;;;;4.55;1.60;;;;;;;;;;5076012;28;20029;-77
2024/01/11 07:18:25;;;;;;;1.35;1.35;;;;;;;;;;5092085;28;20039;-75
2024/01/11 07:20:52;;;;;;;1.40;1.38;;;;;;;;;;5092609;28;20130;-77
2024/01/11 07:23:17;;;;;;;1.55;1.40;;;;;;;;;;5076395;28;20029;-75
2024/01/11 07:25:43;;;;;;;1.00;1.00;;;;;;;;;;5076860;28;20039;-76
2024/01/11 07:28:09;;;;;;;1.88;1.73;;;;;;;;;;5086171;28;20043;-77
2024/01/11 07:30:35;;;;;;;1.67;1.58;;;;;;;;;;5089277;28;20046;-79
2024/01/11 07:33:01;;;;;;;1.27;1.27;;;;;;;;;;5085810;28;20051;-78
2024/01/11 07:35:27;;;;;;;1.25;1.25;;;;;;;;;;5083566;28;20043;-75
2024/01/11 07:37:54;;;;;;;1.35;1.35;;;;;;;;;;5085057;28;20032;-74
2024/01/11 07:40:23;;;;;;;1.70;1.60;;;;;;;;;;5087780;28;20465;-74
2024/01/11 07:42:49;;;;;;;1.48;1.45;;;;;;;;;;5085573;28;20443;-71
2024/01/11 07:45:15;;;;;;;1.38;1.38;;;;;;;;;;5086741;28;20047;-73
2024/01/11 07:47:42;;;;;;;1.40;1.40;;;;;;;;;;5086631;28;20040;-72
2024/01/11 07:50:12;;;;;;;1.00;1.00;;;;;;;;;;5086870;28;20130;-72
2024/01/11 07:52:38;;;;;;;1.35;1.35;;;;;;;;;;5085716;28;20126;-71
2024/01/11 07:55:07;;;;;;;1.33;1.33;;;;;;;;;;5088176;28;20032;-72
2024/01/11 07:57:34;;;;;;;1.40;1.40;;;;;;;;;;5085225;28;20043;-72
2024/01/11 08:00:00;;;;;;;1.15;1.15;;;;;;;;;;5088340;28;20047;-73
2024/01/11 08:02:26;;;;;;;1.80;1.70;;;;;;;;;;5084376;28;20036;-73
2024/01/11 08:04:52;;;;;;;1.50;1.40;;;;;;;;;;5053185;28;20039;-72
2024/01/11 08:07:18;;;;;;;2.45;1.80;;;;;;;;;;5081463;28;20033;-71
2024/01/11 08:09:45;;;;;;;1.70;1.70;;;;;;;;;;5068839;28;20032;-72
2024/01/11 08:12:14;;;;;;;2.22;2.03;;;;;;;;;;5082792;28;20531;-72
2024/01/11 08:14:43;;;;;;;1.63;1.63;;;;;;;;;;5082504;28;20039;-71
2024/01/11 08:17:09;;;;;;;2.15;2.05;;;;;;;;;;5085244;28;20032;-71
2024/01/11 08:19:35;;;;;;;1.70;1.70;;;;;;;;;;5084660;28;20439;-71
2024/01/11 08:22:01;;;;;;;1.50;1.50;;;;;;;;;;5085499;28;20089;-71
2024/01/11 08:24:27;;;;;;;1.77;1.55;;;;;;;;;;5084307;28;20522;-72
2024/01/11 08:26:52;;;;;;;2.58;1.67;;;;;;;;;;5087361;28;20096;-71
2024/01/11 08:29:22;;;;;;;1.40;1.30;;;;;;;;;;5084986;28;20074;-70
2024/01/11 08:31:48;;;;;;;1.40;1.40;;;;;;;;;;5086927;28;20423;-72
2024/01/11 08:34:14;;;;;;;1.67;1.55;;;;;;;;;;5084916;28;20032;-72
2024/01/11 08:36:39;;;;;;;1.42;1.23;;;;;;;;;;5080921;28;20032;-71
2024/01/11 08:39:05;;;;;;;1.45;1.45;;;;;;;;;;5086227;28;20481;-73
2024/01/11 08:41:32;;;;;;;2.15;1.75;;;;;;;;;;5091298;28;20448;-73
2024/01/11 08:43:58;;;;;;;1.45;1.38;;;;;;;;;;5068859;28;20041;-73
2024/01/11 08:46:27;;;;;;;1.77;1.75;;;;;;;;;;5072739;28;20040;-73
2024/01/11 08:48:53;;;;;;;2.13;1.90;;;;;;;;;;5057607;28;20043;-74
2024/01/11 08:51:19;;;;;;;2.05;1.40;;;;;;;;;;5076867;28;20036;-74
2024/01/11 08:53:45;;;;;;;1.42;1.42;;;;;;;;;;5075440;28;20123;-74
2024/01/11 08:56:12;;;;;;;1.52;1.42;;;;;;;;;;5075358;28;20079;-74
2024/01/11 08:58:39;;;;;;;1.40;1.30;;;;;;;;;;5107840;28;20040;-73
2024/01/11 09:01:05;;;;;;;1.55;1.55;;;;;;;;;;5083580;28;20099;-74
2024/01/11 09:03:31;;;;;;;1.45;1.42;;;;;;;;;;5088756;28;20028;-74
2024/01/11 09:05:58;;;;;;;1.80;1.70;;;;;;;;;;5083236;28;20133;-75
2024/01/11 09:08:23;;;;;;;1.65;1.55;;;;;;;;;;5081078;28;20028;-74
2024/01/11 09:10:50;;;;;;;1.58;1.58;;;;;;;;;;5089474;28;20096;-74
2024/01/11 09:13:16;;;;;;;1.85;1.48;;;;;;;;;;5082653;28;20024;-74
2024/01/11 09:15:42;;;;;;;2.38;1.60;;;;;;;;;;5069276;28;20050;-73
2024/01/11 09:18:08;;;;;;;1.10;1.10;;;;;;;;;;5067918;28;20028;-73
2024/01/11 09:20:34;;;;;;;2.38;2.20;;;;;;;;;;5088816;28;20105;-70
2024/01/11 09:23:03;;;;;;;6.85;1.23;;;;;;;;;;5080816;28;20032;-73
2024/01/11 09:25:32;;;;;;;1.60;1.30;;;;;;;;;;5088051;28;20128;-73
2024/01/11 09:27:58;;;;;;;5.22;1.00;;;;;;;;;;5086992;28;20508;-72
2024/01/11 09:30:24;;;;;;;1.02;1.02;;;;;;;;;;5070632;28;20051;-73
2024/01/11 09:32:50;;;;;;;0.80;0.80;;;;;;;;;;5068592;28;20053;-74
2024/01/11 09:35:16;;;;;;;1.08;1.08;;;;;;;;;;5067159;28;20517;-73
2024/01/11 09:37:42;;;;;;;1.20;1.20;;;;;;;;;;5086515;28;20035;-73
2024/01/11 09:40:10;;;;;;;1.73;1.42;;;;;;;;;;5084042;28;20047;-74
2024/01/11 09:42:37;;;;;;;1.30;1.30;;;;;;;;;;5047537;28;20098;-73
2024/01/11 09:45:13;;;;;;;1.33;1.33;;;;;;;;;;5060608;28;20047;-74
2024/01/11 09:47:39;;;;;;;1.50;1.45;;;;;;;;;;5085935;28;20033;-76
2024/01/11 09:50:06;;;;;;;1.35;1.33;;;;;;;;;;5071910;28;20121;-75
2024/01/11 09:52:32;;;;;;;1.23;1.20;;;;;;;;;;5070902;28;20091;-77
2024/01/11 09:55:01;;;;;;;1.85;1.75;;;;;;;;;;5078693;28;20543;-77
2024/01/11 09:57:30;;;;;;;1.90;1.80;;;;;;;;;;5068965;28;20024;-79
2024/01/11 09:59:56;;;;;;;4.47;4.07;;;;;;;;;;5084805;28;20048;-77
2024/01/11 10:02:22;;;;;;;2.53;2.33;;;;;;;;;;5088923;28;20028;-78
2024/01/11 10:04:48;;;;;;;5.93;2.35;;;;;;;;;;5074810;28;20036;-78
2024/01/11 10:07:15;;;;;;;2.80;2.60;;;;;;;;;;5085373;28;20024;-78
2024/01/11 10:09:40;;;;;;;5.13;2.47;;;;;;;;;;5070759;28;20545;-78
2024/01/11 10:12:06;;;;;;;2.13;2.03;;;;;;;;;;5068215;28;20523;-78
2024/01/11 10:14:32;;;;;;;2.05;1.95;;;;;;;;;;5069278;28;20063;-78
2024/01/11 10:16:58;;;;;;;1.73;1.63;;;;;;;;;;5071982;28;20527;-77
2024/01/11 10:19:24;;;;;;;1.73;1.65;;;;;;;;;;5073971;28;20135;-78
2024/01/11 10:21:50;;;;;;;2.08;1.95;;;;;;;;;;5081819;28;20043;-78
2024/01/11 10:24:20;;;;;;;2.05;1.95;;;;;;;;;;5080530;28;20032;-78
2024/01/11 10:26:46;;;;;;;2.15;2.05;;;;;;;;;;5068911;28;20098;-79
2024/01/11 10:29:12;;;;;;;2.13;2.03;;;;;;;;;;5070248;28;20033;-80
2024/01/11 10:31:38;;;;;;;2.40;2.30;;;;;;;;;;5071569;28;20024;-80
2024/01/11 10:34:05;;;;;;;2.60;2.40;;;;;;;;;;5073213;28;20090;-82
2024/01/11 10:36:31;;;;;;;3.75;2.55;;;;;;;;;;5082561;28;20166;-80
2024/01/11 10:38:57;;;;;;;2.83;1.80;;;;;;;;;;5095451;28;20123;-78
2024/01/11 10:41:24;;;;;;;2.20;2.00;;;;;;;;;;5070810;28;20079;-79
2024/01/11 10:43:49;;;;;;;2.80;2.38;;;;;;;;;;5086856;28;20029;-78
2024/01/11 10:46:16;;;;;;;1.92;1.83;;;;;;;;;;5071655;28;20146;-78
2024/01/11 10:48:43;;;;;;;2.08;1.90;;;;;;;;;;5073952;28;20039;-78
2024/01/11 10:51:10;;;;;;;2.25;2.05;;;;;;;;;;5082028;28;20029;-78
2024/01/11 10:53:41;;;;;;;1.70;1.65;;;;;;;;;;5066689;28;20040;-76
2024/01/11 10:56:07;;;;;;;1.23;1.23;;;;;;;;;;5085494;28;20040;-79
2024/01/11 10:58:35;;;;;;;1.80;1.70;;;;;;;;;;5078592;28;20043;-79
2024/01/11 11:01:01;;;;;;;1.67;1.60;;;;;;;;;;5090255;28;20101;-77
2024/01/11 11:03:28;;;;;;;2.70;2.60;;;;;;;;;;5091971;28;20114;-80
2024/01/11 11:05:57;;;;;;;1.77;1.67;;;;;;;;;;5073819;28;20071;-77
2024/01/11 11:08:27;;;;;;;1.40;1.40;;;;;;;;;;5086833;28;20631;-78
2024/01/11 11:10:59;;;;;;;2.30;1.88;;;;;;;;;;5067517;28;20036;-77
2024/01/11 11:13:26;;;;;;;1.67;1.67;;;;;;;;;;5068814;28;20135;-77
2024/01/11 11:15:53;;;;;;;2.15;2.05;;;;;;;;;;5091174;28;20136;-79
2024/01/11 11:18:19;;;;;;;2.10;2.00;;;;;;;;;;5089791;28;20024;-78
2024/01/11 11:20:45;;;;;;;2.08;2.08;;;;;;;;;;5076041;28;20044;-79
2024/01/11 11:23:12;;;;;;;1.90;1.80;;;;;;;;;;5052354;28;20039;-78
2024/01/11 11:25:39;;;;;;;1.75;1.65;;;;;;;;;;5067326;28;20093;-77
2024/01/11 11:28:05;;;;;;;2.10;2.00;;;;;;;;;;5065943;28;20064;-77
2024/01/11 11:30:32;;;;;;;2.05;1.98;;;;;;;;;;5073904;28;20028;-77
2024/01/11 11:32:58;;;;;;;1.90;1.80;;;;;;;;;;5086013;28;20044;-76
2024/01/11 11:35:24;;;;;;;1.70;1.70;;;;;;;;;;5070257;28;20453;-77
2024/01/11 11:37:56;;;;;;;1.88;1.80;;;;;;;;;;5099573;28;20024;-76
2024/01/11 11:40:31;;;;;;;2.35;2.25;;;;;;;;;;5072745;28;20056;-75
2024/01/11 11:42:58;;;;;;;1.40;1.40;;;;;;;;;;5071879;28;20036;-76
2024/01/11 11:45:27;;;;;;;1.70;1.60;;;;;;;;;;5067199;28;20131;-76
2024/01/11 11:47:53;;;;;;;1.98;1.88;;;;;;;;;;5087297;28;20543;-75
2024/01/11 11:50:21;;;;;;;2.17;2.08;;;;;;;;;;5088322;28;20074;-75
2024/01/11 11:52:47;;;;;;;2.08;1.98;;;;;;;;;;5090069;28;20028;-75
2024/01/11 11:55:13;;;;;;;2.58;2.47;;;;;;;;;;5075416;28;20137;-76
2024/01/11 11:57:38;;;;;;;2.22;2.13;;;;;;;;;;5055027;28;20503;-76
2024/01/11 12:00:06;;;;;;;2.25;2.15;;;;;;;;;;5096355;28;20070;-75
2024/01/11 12:02:37;;;;;;;2.25;2.15;;;;;;;;;;5072563;28;20063;-77
2024/01/11 12:05:06;;;;;;;2.20;2.10;;;;;;;;;;5071816;28;20040;-75
2024/01/11 12:07:32;;;;;;;2.40;2.30;;;;;;;;;;5071472;28;20035;-76
2024/01/11 12:09:58;;;;;;;2.22;2.03;;;;;;;;;;5070138;28;20036;-75
2024/01/11 12:12:24;;;;;;;3.70;2.47;;;;;;;;;;5069358;28;20731;-76
2024/01/11 12:14:50;;;;;;;1.98;1.88;;;;;;;;;;5071777;28;20131;-76
2024/01/11 12:17:16;;;;;;;2.42;2.22;;;;;;;;;;5071599;28;20051;-78
2024/01/11 12:19:42;;;;;;;2.03;1.92;;;;;;;;;;5069986;28;20092;-76
2024/01/11 12:22:08;;;;;;;1.77;1.75;;;;;;;;;;5071744;28;20028;-77
2024/01/11 12:24:34;;;;;;;3.95;3.35;;;;;;;;;;5071005;28;20089;-78
2024/01/11 12:27:00;;;;;;;2.50;2.30;;;;;;;;;;5074691;28;20030;-77
2024/01/11 12:29:28;;;;;;;2.83;2.70;;;;;;;;;;5072562;28;20040;-76
2024/01/11 12:31:54;;;;;;;2.88;2.53;;;;;;;;;;5079203;28;20123;-76
2024/01/11 12:34:20;;;;;;;2.35;2.25;;;;;;;;;;5074431;28;20074;-76
2024/01/11 12:36:46;;;;;;;2.10;2.00;;;;;;;;;;5096903;28;20143;-76
2024/01/11 12:39:13;;;;;;;7.80;2.70;;;;;;;;;;5108332;28;20063;-79
2024/01/11 12:41:39;;;;;;;2.38;2.28;;;;;;;;;;5091603;28;20028;-76
2024/01/11 12:44:06;;;;;;;3.25;2.28;;;;;;;;;;5087252;28;20028;-76
2024/01/11 12:46:32;;;;;;;2.30;2.20;;;;;;;;;;5071182;28;20040;-74
2024/01/11 12:48:58;;;;;;;2.90;2.20;;;;;;;;;;5070745;28;20047;-76
2024/01/11 12:51:25;;;;;;;1.80;1.80;;;;;;;;;;5077325;28;20500;-75
2024/01/11 12:53:51;;;;;;;1.85;1.85;;;;;;;;;;5069928;28;20439;-74
2024/01/11 12:56:17;;;;;;;2.70;2.55;;;;;;;;;;5069998;28;20147;-75
2024/01/11 12:58:43;;;;;;;3.00;2.80;;;;;;;;;;5079680;28;20050;-74
2024/01/11 13:01:10;;;;;;;8.65;3.35;;;;;;;;;;5102105;28;20476;-75
2024/01/11 13:03:37;;;;;;;15.48;2.80;;;;;;;;;;5092838;28;20055;-74
2024/01/11 13:06:06;;;;;;;2.30;2.10;;;;;;;;;;5073089;28;20580;-74
2024/01/11 13:08:32;;;;;;;2.20;2.10;;;;;;;;;;5070387;28;20500;-74
2024/01/11 13:10:58;;;;;;;2.00;1.90;;;;;;;;;;5051469;28;20064;-75
2024/01/11 13:13:24;;;;;;;3.33;2.30;;;;;;;;;;5069188;28;20029;-74
2024/01/11 13:15:50;;;;;;;2.35;2.25;;;;;;;;;;5068093;28;20111;-75
2024/01/11 13:18:16;;;;;;;1.80;1.80;;;;;;;;;;5069025;28;20128;-76
2024/01/11 13:20:42;;;;;;;2.58;2.40;;;;;;;;;;5069221;28;20135;-73
2024/01/11 13:23:15;;;;;;;2.75;2.60;;;;;;;;;;5069279;28;20043;-76
2024/01/11 13:25:41;;;;;;;3.38;2.72;;;;;;;;;;5067714;28;20133;-76
2024/01/11 13:28:07;;;;;;;2.90;2.72;;;;;;;;;;5067442;28;20123;-74
2024/01/11 13:30:33;;;;;;;4.57;3.15;;;;;;;;;;5080295;28;20649;-74
2024/01/11 13:32:59;;;;;;;4.70;2.83;;;;;;;;;;5067299;28;20048;-74
2024/01/11 13:35:25;;;;;;;2.08;1.98;;;;;;;;;;5068715;28;20039;-74
2024/01/11 13:37:51;;;;;;;3.42;3.00;;;;;;;;;;5089751;28;20103;-75
2024/01/11 13:40:17;;;;;;;2.42;2.33;;;;;;;;;;5080368;28;20115;-75
2024/01/11 13:42:43;;;;;;;2.55;2.28;;;;;;;;;;5067452;28;20123;-76
2024/01/11 13:45:09;;;;;;;3.95;2.75;;;;;;;;;;5067928;28;20036;-75
2024/01/11 13:47:35;;;;;;;2.55;2.45;;;;;;;;;;5068641;28;20035;-76
2024/01/11 13:50:01;;;;;;;2.45;2.35;;;;;;;;;;5050917;28;20115;-76
2024/01/11 13:52:27;;;;;;;2.65;2.45;;;;;;;;;;5067059;28;20128;-77
2024/01/11 13:54:53;;;;;;;2.38;2.28;;;;;;;;;;5075806;28;20582;-75
2024/01/11 13:57:19;;;;;;;2.03;1.92;;;;;;;;;;5100376;28;20032;-76
2024/01/11 13:59:44;;;;;;;2.58;2.47;;;;;;;;;;5080976;28;20097;-76
2024/01/11 14:02:12;;;;;;;2.65;2.47;;;;;;;;;;5088183;28;20092;-75
2024/01/11 14:04:37;;;;;;;3.50;3.15;;;;;;;;;;5078973;28;20046;-75
2024/01/11 14:07:06;;;;;;;2.95;2.75;;;;;;;;;;5068804;28;20028;-76
2024/01/11 14:09:32;;;;;;;2.78;2.60;;;;;;;;;;5068494;28;20037;-75
2024/01/11 14:11:57;;;;;;;2.80;2.60;;;;;;;;;;5080280;28;20389;-75
2024/01/11 14:14:23;;;;;;;2.33;2.22;;;;;;;;;;5086783;28;20066;-75
2024/01/11 14:16:51;;;;;;;3.13;2.92;;;;;;;;;;5088161;28;20503;-77
2024/01/11 14:19:17;;;;;;;6.07;3.25;;;;;;;;;;5088054;28;20047;-76
2024/01/11 14:21:42;;;;;;;4.28;2.55;;;;;;;;;;5069480;28;20476;-75
2024/01/11 14:24:08;;;;;;;4.50;3.13;;;;;;;;;;5050561;28;20029;-75
2024/01/11 14:26:34;;;;;;;3.08;2.80;;;;;;;;;;5094140;28;20043;-77
2024/01/11 14:29:03;;;;;;;3.70;3.40;;;;;;;;;;5087450;28;20043;-76
2024/01/11 14:31:29;;;;;;;3.58;3.28;;;;;;;;;;5077209;28;20040;-77
2024/01/11 14:33:55;;;;;;;3.47;3.05;;;;;;;;;;5087254;28;20573;-74
2024/01/11 14:36:21;;;;;;;3.03;2.83;;;;;;;;;;5084153;28;20039;-77
2024/01/11 14:38:47;;;;;;;5.05;3.42;;;;;;;;;;5076499;28;20033;-77